Time;durP1;ratioP1;P1;durP2;ratioP2;P2;SDS_P1;SDS_P2;PMS_P1;PMS_P2;Temp;Humidity;BMP_temperature;BMP_pressure;BME280_temperature;BME280_humidity;BME280_pressure;Samples;Min_cycle;Max_cycle;Signal;HPM_P1;HPM_P2
2022/02/23 00:00:59;;;;;;;;;;;6.50;73.80;;;;;;5065989;27;84471;-43
2022/02/23 00:03:24;;;;;;;;;;;6.50;74.00;;;;;;5069648;27;81031;-43
2022/02/23 00:05:50;;;;;;;;;;;6.50;74.00;;;;;;5069284;27;84579;-43
2022/02/23 00:08:15;;;;;;;;;;;6.50;74.00;;;;;;5069803;27;82097;-43
2022/02/23 00:10:41;;;;;;;;;;;6.50;73.90;;;;;;5069148;27;84145;-43
2022/02/23 00:13:06;;;;;;;;;;;6.50;74.00;;;;;;5069330;27;84496;-44
2022/02/23 00:15:32;;;;;;;;;;;6.50;74.00;;;;;;5069718;27;82179;-44
2022/02/23 00:17:57;;;;;;;;;;;6.50;73.90;;;;;;5069590;27;83713;-43
2022/02/23 00:20:23;;;;;;;;;;;6.50;73.90;;;;;;5069168;27;83982;-44
2022/02/23 00:22:48;;;;;;;;;;;6.50;73.80;;;;;;5072127;27;82149;-43
2022/02/23 00:25:14;;;;;;;;;;;6.40;73.90;;;;;;5069179;27;84677;-44
2022/02/23 00:27:40;;;;;;;;;;;6.40;73.90;;;;;;5069765;27;81265;-43
2022/02/23 00:30:05;;;;;;;;;;;6.50;74.10;;;;;;5069535;27;83346;-43
2022/02/23 00:32:31;;;;;;;;;;;6.40;74.10;;;;;;5069093;27;84112;-43
2022/02/23 00:34:57;;;;;;;;;;;6.40;74.10;;;;;;5068507;27;83059;-43
2022/02/23 00:37:22;;;;;;;;;;;6.40;74.10;;;;;;5069134;27;84826;-43
2022/02/23 00:39:48;;;;;;;;;;;6.40;74.10;;;;;;5068661;27;84675;-43
2022/02/23 00:42:13;;;;;;;;;;;6.40;74.20;;;;;;5069073;27;81855;-43
2022/02/23 00:44:39;;;;;;;;;;;6.40;74.20;;;;;;5071787;27;83969;-43
2022/02/23 00:47:05;;;;;;;;;;;6.40;74.00;;;;;;5069123;27;82033;-43
2022/02/23 00:49:30;;;;;;;;;;;6.40;74.10;;;;;;5069194;27;82773;-43
2022/02/23 00:51:56;;;;;;;;;;;6.40;74.10;;;;;;5069411;27;84281;-43
2022/02/23 00:54:21;;;;;;;;;;;6.40;74.00;;;;;;5068957;27;82085;-43
2022/02/23 00:56:48;;;;;;;;;;;6.40;74.10;;;;;;5068906;27;83802;-43
2022/02/23 00:59:13;;;;;;;;;;;6.40;74.00;;;;;;5068082;27;85482;-43
2022/02/23 01:01:39;;;;;;;;;;;6.40;74.00;;;;;;5068744;27;81928;-43
2022/02/23 01:04:05;;;;;;;;;;;6.40;74.00;;;;;;5068727;27;84486;-43
2022/02/23 01:06:31;;;;;;;;;;;6.40;74.00;;;;;;5071304;27;82926;-43
2022/02/23 01:08:56;;;;;;;;;;;6.40;73.90;;;;;;5068873;27;84105;-43
2022/02/23 01:11:22;;;;;;;;;;;6.40;73.90;;;;;;5068485;27;84470;-43
2022/02/23 01:13:49;;;;;;;;;;;6.40;74.00;;;;;;5068790;27;82092;-43
2022/02/23 01:16:15;;;;;;;;;;;6.40;74.00;;;;;;5068925;27;83639;-43
2022/02/23 01:18:40;;;;;;;;;;;6.40;74.00;;;;;;5068541;27;83815;-43
2022/02/23 01:21:06;;;;;;;;;;;6.30;73.90;;;;;;5068057;27;82088;-43
2022/02/23 01:23:31;;;;;;;;;;;6.40;73.90;;;;;;5068030;27;83784;-42
2022/02/23 01:25:57;;;;;;;;;;;6.40;73.90;;;;;;5068279;27;84928;-43
2022/02/23 01:28:22;;;;;;;;;;;6.30;74.00;;;;;;5071401;27;82087;-43
2022/02/23 01:30:48;;;;;;;;;;;6.30;74.00;;;;;;5068309;27;84667;-43
2022/02/23 01:33:13;;;;;;;;;;;6.30;74.00;;;;;;5068179;27;81830;-43
2022/02/23 01:35:39;;;;;;;;;;;6.30;74.20;;;;;;5068164;27;82969;-43
2022/02/23 01:38:05;;;;;;;;;;;6.30;73.90;;;;;;5068038;27;83309;-43
2022/02/23 01:40:31;;;;;;;;;;;6.30;73.90;;;;;;5068462;27;81257;-43
2022/02/23 01:42:56;;;;;;;;;;;6.30;73.90;;;;;;5068320;27;83168;-43
2022/02/23 01:45:22;;;;;;;;;;;6.40;73.80;;;;;;5068019;27;84143;-43
2022/02/23 01:47:47;;;;;;;;;;;6.30;74.00;;;;;;5067387;27;83032;-43
2022/02/23 01:50:14;;;;;;;;;;;6.20;74.20;;;;;;5070672;27;84854;-43
2022/02/23 01:52:39;;;;;;;;;;;6.30;74.00;;;;;;5068099;27;81753;-43
2022/02/23 01:55:05;;;;;;;;;;;6.30;74.00;;;;;;5068018;27;84207;-43
2022/02/23 01:57:31;;;;;;;;;;;6.30;74.00;;;;;;5067782;27;86380;-43
2022/02/23 01:59:56;;;;;;;;;;;6.20;74.00;;;;;;5067927;27;82091;-43
2022/02/23 02:02:24;;;;;;;;;;;6.30;74.00;;;;;;5067938;27;83926;-43
2022/02/23 02:04:50;;;;;;;;;;;6.30;74.00;;;;;;5068196;27;83689;-43
2022/02/23 02:07:15;;;;;;;;;;;6.20;73.90;;;;;;5067771;27;82040;-42
2022/02/23 02:09:41;;;;;;;;;;;6.20;73.90;;;;;;5070367;27;83387;-43
2022/02/23 02:12:06;;;;;;;;;;;6.20;74.00;;;;;;5067024;27;82815;-43
2022/02/23 02:14:32;;;;;;;;;;;6.20;74.00;;;;;;5067581;27;84914;-43
2022/02/23 02:16:57;;;;;;;;;;;6.20;74.00;;;;;;5067567;27;84495;-43
2022/02/23 02:19:23;;;;;;;;;;;6.20;73.80;;;;;;5067636;27;82058;-42
2022/02/23 02:22:21;;;;;;;;;;;6.20;73.90;;;;;;5067331;27;84249;-43
2022/02/23 02:24:46;;;;;;;;;;;6.20;73.90;;;;;;5076913;27;84768;-43
2022/02/23 02:27:14;;;;;;;;;;;6.20;73.90;;;;;;5066827;27;81830;-43
2022/02/23 02:29:40;;;;;;;;;;;6.20;74.00;;;;;;5068022;27;83476;-43
2022/02/23 02:32:06;;;;;;;;;;;6.20;73.90;;;;;;5070042;27;84545;-42
2022/02/23 02:34:32;;;;;;;;;;;6.20;73.70;;;;;;5067657;27;84558;-43
2022/02/23 02:36:57;;;;;;;;;;;6.20;73.80;;;;;;5066718;27;86310;-43
2022/02/23 02:39:24;;;;;;;;;;;6.20;73.80;;;;;;5066703;27;82188;-43
2022/02/23 02:41:49;;;;;;;;;;;6.20;73.90;;;;;;5067236;27;84398;-43
2022/02/23 02:44:15;;;;;;;;;;;6.10;74.10;;;;;;5067204;27;84534;-43
2022/02/23 02:46:41;;;;;;;;;;;6.20;74.00;;;;;;5066991;27;82035;-43
2022/02/23 02:49:07;;;;;;;;;;;6.20;74.00;;;;;;5067363;27;83753;-43
2022/02/23 02:51:33;;;;;;;;;;;6.20;74.10;;;;;;5066958;27;83721;-43
2022/02/23 02:53:58;;;;;;;;;;;6.10;74.00;;;;;;5070545;27;81314;-43
2022/02/23 02:56:24;;;;;;;;;;;6.10;74.00;;;;;;5067099;27;84761;-43
2022/02/23 02:58:52;;;;;;;;;;;6.10;74.00;;;;;;5067197;27;82158;-43
2022/02/23 03:01:22;;;;;;;;;;;6.10;74.00;;;;;;5065054;27;84657;-43
2022/02/23 03:03:47;;;;;;;;;;;6.10;74.00;;;;;;5066799;27;84450;-43
2022/02/23 03:06:13;;;;;;;;;;;6.10;73.90;;;;;;5067104;27;81913;-43
2022/02/23 03:08:57;;;;;;;;;;;6.10;74.00;;;;;;5067126;27;82517;-43
2022/02/23 03:11:23;;;;;;;;;;;6.10;73.80;;;;;;5066852;27;84705;-43
2022/02/23 03:13:49;;;;;;;;;;;6.10;73.80;;;;;;5067008;27;81926;-43
2022/02/23 03:16:14;;;;;;;;;;;6.10;74.00;;;;;;5069431;27;82322;-43
2022/02/23 03:18:40;;;;;;;;;;;6.10;73.80;;;;;;5067442;27;81197;-43
2022/02/23 03:21:06;;;;;;;;;;;6.10;73.90;;;;;;5066792;27;83357;-43
2022/02/23 03:23:32;;;;;;;;;;;6.10;73.90;;;;;;5066966;27;82944;-43
2022/02/23 03:25:58;;;;;;;;;;;6.10;73.90;;;;;;5066124;27;82935;-43
2022/02/23 03:28:23;;;;;;;;;;;6.00;74.00;;;;;;5066677;27;85094;-43
2022/02/23 03:30:49;;;;;;;;;;;6.00;74.10;;;;;;5066293;27;84598;-43
2022/02/23 03:33:15;;;;;;;;;;;6.00;74.00;;;;;;5066808;27;82063;-43
2022/02/23 03:35:41;;;;;;;;;;;6.10;74.00;;;;;;5066855;27;83303;-43
2022/02/23 03:38:07;;;;;;;;;;;6.10;73.90;;;;;;5069313;27;83633;-43
2022/02/23 03:40:33;;;;;;;;;;;6.10;74.00;;;;;;5069929;27;83837;-43
2022/02/23 03:43:00;;;;;;;;;;;6.00;73.90;;;;;;5070333;27;82850;-43
2022/02/23 03:45:26;;;;;;;;;;;6.10;74.00;;;;;;5069955;27;82136;-43
2022/02/23 03:47:51;;;;;;;;;;;6.10;73.90;;;;;;5070184;27;83595;-43
2022/02/23 03:50:17;;;;;;;;;;;6.00;73.90;;;;;;5069251;27;85875;-43
2022/02/23 03:52:42;;;;;;;;;;;6.10;73.90;;;;;;5069916;27;81902;-44
2022/02/23 03:55:08;;;;;;;;;;;6.00;74.00;;;;;;5069843;27;84101;-43
2022/02/23 03:57:34;;;;;;;;;;;6.00;74.00;;;;;;5069608;27;84386;-43
2022/02/23 04:00:00;;;;;;;;;;;6.00;74.10;;;;;;5072404;27;81800;-43
2022/02/23 04:02:25;;;;;;;;;;;6.00;74.10;;;;;;5069575;27;84812;-43
2022/02/23 04:04:51;;;;;;;;;;;6.00;74.10;;;;;;5069978;27;82007;-43
2022/02/23 04:07:17;;;;;;;;;;;6.00;74.10;;;;;;5070449;27;83202;-43
2022/02/23 04:09:43;;;;;;;;;;;6.00;74.20;;;;;;5069673;27;84799;-43
2022/02/23 04:12:09;;;;;;;;;;;6.00;74.10;;;;;;5069762;27;81656;-42
2022/02/23 04:14:35;;;;;;;;;;;6.00;74.10;;;;;;5068793;27;82945;-43
2022/02/23 04:17:01;;;;;;;;;;;6.00;74.00;;;;;;5069288;27;84848;-43
2022/02/23 04:19:27;;;;;;;;;;;6.00;74.10;;;;;;5072487;27;81976;-43
2022/02/23 04:21:52;;;;;;;;;;;6.00;74.10;;;;;;5069265;27;83565;-43
2022/02/23 04:24:18;;;;;;;;;;;6.00;74.00;;;;;;5069658;27;82037;-43
2022/02/23 04:26:43;;;;;;;;;;;6.00;74.00;;;;;;5069508;27;83987;-43
2022/02/23 04:29:09;;;;;;;;;;;5.90;74.10;;;;;;5068968;27;84822;-43
2022/02/23 04:31:34;;;;;;;;;;;6.00;74.00;;;;;;5069856;27;81119;-43
2022/02/23 04:34:00;;;;;;;;;;;6.00;74.00;;;;;;5069311;27;83318;-43
2022/02/23 04:36:26;;;;;;;;;;;6.00;74.00;;;;;;5069234;27;84396;-43
2022/02/23 04:38:51;;;;;;;;;;;5.90;74.00;;;;;;5068352;27;83162;-43
2022/02/23 04:41:17;;;;;;;;;;;5.90;74.00;;;;;;5071763;27;84640;-43
2022/02/23 04:43:43;;;;;;;;;;;5.90;73.90;;;;;;5069049;27;81970;-43
2022/02/23 04:46:13;;;;;;;;;;;5.90;74.00;;;;;;5069224;27;83984;-43
2022/02/23 04:48:44;;;;;;;;;;;5.90;74.10;;;;;;5068974;27;84423;-43
2022/02/23 04:51:10;;;;;;;;;;;5.90;74.20;;;;;;5068834;27;81992;-43
2022/02/23 04:53:36;;;;;;;;;;;5.90;74.20;;;;;;5069136;27;84030;-43
2022/02/23 04:56:05;;;;;;;;;;;5.90;74.00;;;;;;5069333;27;83972;-42
2022/02/23 04:58:30;;;;;;;;;;;5.90;73.90;;;;;;5068611;27;82111;-43
2022/02/23 05:00:56;;;;;;;;;;;5.90;74.10;;;;;;5069108;27;83909;-43
2022/02/23 05:03:21;;;;;;;;;;;5.90;74.00;;;;;;5070713;27;85450;-43
2022/02/23 05:05:49;;;;;;;;;;;5.80;74.00;;;;;;5068873;27;84603;-43
2022/02/23 05:08:15;;;;;;;;;;;5.90;74.00;;;;;;5068514;27;84775;-43
2022/02/23 05:10:42;;;;;;;;;;;5.90;73.90;;;;;;5068811;27;82149;-43
2022/02/23 05:13:08;;;;;;;;;;;5.90;73.90;;;;;;5068469;27;84157;-43
2022/02/23 05:15:33;;;;;;;;;;;5.80;74.00;;;;;;5068765;27;83715;-43
2022/02/23 05:17:59;;;;;;;;;;;5.80;74.00;;;;;;5068639;27;82015;-43
2022/02/23 05:20:24;;;;;;;;;;;5.80;74.00;;;;;;5069120;27;84140;-43
2022/02/23 05:22:50;;;;;;;;;;;5.80;73.90;;;;;;5068316;27;84203;-43
2022/02/23 05:25:16;;;;;;;;;;;5.80;74.10;;;;;;5071390;27;82041;-43
2022/02/23 05:27:42;;;;;;;;;;;5.80;74.10;;;;;;5067547;27;85469;-43
2022/02/23 05:30:08;;;;;;;;;;;5.70;74.20;;;;;;5068513;27;82083;-43
2022/02/23 05:32:34;;;;;;;;;;;5.80;74.10;;;;;;5068451;27;83924;-43
2022/02/23 05:35:00;;;;;;;;;;;5.80;74.00;;;;;;5068098;27;84584;-43
2022/02/23 05:37:26;;;;;;;;;;;5.80;74.10;;;;;;5068452;27;82090;-43
2022/02/23 05:39:51;;;;;;;;;;;5.80;74.10;;;;;;5068058;27;84100;-43
2022/02/23 05:42:17;;;;;;;;;;;5.80;73.90;;;;;;5067877;27;84497;-43
2022/02/23 05:44:42;;;;;;;;;;;5.80;74.00;;;;;;5068924;27;81350;-43
2022/02/23 05:47:08;;;;;;;;;;;5.80;73.90;;;;;;5070633;27;83068;-43
2022/02/23 05:49:33;;;;;;;;;;;5.80;73.90;;;;;;5068235;27;82044;-43
2022/02/23 05:51:59;;;;;;;;;;;5.80;74.00;;;;;;5067448;27;84019;-43
2022/02/23 05:54:24;;;;;;;;;;;5.80;74.50;;;;;;5068008;27;84114;-43
2022/02/23 05:56:50;;;;;;;;;;;5.80;74.00;;;;;;5067912;27;82530;-43
2022/02/23 05:59:15;;;;;;;;;;;5.70;74.00;;;;;;5068011;27;84158;-43
2022/02/23 06:01:41;;;;;;;;;;;5.70;74.10;;;;;;5066755;27;84632;-43
2022/02/23 06:04:06;;;;;;;;;;;5.70;74.10;;;;;;5067836;27;81971;-43
2022/02/23 06:06:32;;;;;;;;;;;5.70;74.00;;;;;;5067913;27;84124;-43
2022/02/23 06:08:57;;;;;;;;;;;5.70;74.10;;;;;;5070867;27;83689;-43
2022/02/23 06:11:26;;;;;;;;;;;5.70;74.10;;;;;;5067879;27;83144;-43
2022/02/23 06:13:53;;;;;;;;;;;5.70;74.20;;;;;;5067426;27;84431;-43
2022/02/23 06:16:19;;;;;;;;;;;5.70;74.00;;;;;;5066991;27;83100;-43
2022/02/23 06:18:45;;;;;;;;;;;5.70;74.10;;;;;;5067771;27;85258;-43
2022/02/23 06:21:10;;;;;;;;;;;5.70;74.10;;;;;;5067289;27;84339;-43
2022/02/23 06:23:36;;;;;;;;;;;5.70;74.10;;;;;;5067714;27;82090;-43
2022/02/23 06:26:01;;;;;;;;;;;5.70;74.10;;;;;;5067666;27;83756;-43
2022/02/23 06:28:27;;;;;;;;;;;5.70;74.00;;;;;;5069985;27;84299;-43
2022/02/23 06:30:53;;;;;;;;;;;5.70;74.10;;;;;;5067527;27;84014;-43
2022/02/23 06:33:22;;;;;;;;;;;5.70;74.10;;;;;;5067672;27;83127;-43
2022/02/23 06:35:49;;;;;;;;;;;5.70;74.00;;;;;;5067498;27;82124;-44
2022/02/23 06:38:14;;;;;;;;;;;5.70;74.00;;;;;;5067319;27;83841;-43
2022/02/23 06:40:40;;;;;;;;;;;5.70;74.10;;;;;;5066380;27;85621;-43
2022/02/23 06:43:06;;;;;;;;;;;5.70;74.10;;;;;;5067089;27;82052;-43
2022/02/23 06:45:32;;;;;;;;;;;5.70;74.10;;;;;;5067458;27;83795;-43
2022/02/23 06:47:57;;;;;;;;;;;5.70;74.00;;;;;;5067123;27;84856;-43
2022/02/23 06:50:23;;;;;;;;;;;5.70;74.00;;;;;;5070036;27;82104;-43
2022/02/23 06:52:49;;;;;;;;;;;5.70;74.10;;;;;;5065709;27;85858;-43
2022/02/23 06:55:15;;;;;;;;;;;5.70;74.10;;;;;;5067133;27;81782;-43
2022/02/23 06:57:42;;;;;;;;;;;5.70;74.10;;;;;;5067327;27;83905;-43
2022/02/23 07:00:09;;;;;;;;;;;5.60;74.10;;;;;;5067281;27;84520;-43
2022/02/23 07:02:35;;;;;;;;;;;5.70;74.30;;;;;;5067085;27;82031;-43
2022/02/23 07:05:01;;;;;;;;;;;5.60;74.10;;;;;;5066393;27;83733;-43
2022/02/23 07:07:26;;;;;;;;;;;5.70;74.20;;;;;;5066769;27;84313;-43
2022/02/23 07:09:52;;;;;;;;;;;5.60;74.20;;;;;;5066901;27;82166;-43
2022/02/23 07:12:18;;;;;;;;;;;5.70;74.30;;;;;;5069615;27;84075;-43
2022/02/23 07:14:43;;;;;;;;;;;5.60;74.30;;;;;;5070860;27;82189;-43
2022/02/23 07:17:09;;;;;;;;;;;5.60;74.20;;;;;;5070708;27;84230;-43
2022/02/23 07:19:35;;;;;;;;;;;5.60;74.30;;;;;;5066811;27;89493;-44
2022/02/23 07:22:01;;;;;;;;;;;5.60;74.20;;;;;;5067550;27;86137;-44
2022/02/23 07:24:26;;;;;;;;;;;5.60;74.10;;;;;;5067165;27;88290;-43
2022/02/23 07:26:52;;;;;;;;;;;5.70;74.10;;;;;;5066496;27;89339;-43
2022/02/23 07:29:17;;;;;;;;;;;5.70;74.10;;;;;;5066279;27;87787;-43
2022/02/23 07:31:44;;;;;;;;;;;5.70;74.10;;;;;;5067153;27;89905;-43
2022/02/23 07:34:10;;;;;;;;;;;5.70;74.00;;;;;;5069726;27;89542;-43
2022/02/23 07:36:36;;;;;;;;;;;5.70;74.10;;;;;;5066854;27;87929;-43
2022/02/23 07:39:01;;;;;;;;;;;5.70;74.00;;;;;;5066225;27;89339;-44
2022/02/23 07:41:28;;;;;;;;;;;5.70;74.10;;;;;;5066465;27;87068;-43
2022/02/23 07:43:55;;;;;;;;;;;5.60;74.10;;;;;;5066690;27;88011;-43
2022/02/23 07:46:20;;;;;;;;;;;5.70;74.00;;;;;;5066767;27;89234;-43
2022/02/23 07:48:47;;;;;;;;;;;5.70;74.60;;;;;;5066828;27;87008;-43
2022/02/23 07:51:17;;;;;;;;;;;5.70;74.00;;;;;;5066726;27;88895;-43
2022/02/23 07:53:43;;;;;;;;;;;5.70;74.00;;;;;;5065642;27;90608;-43
2022/02/23 07:56:08;;;;;;;;;;;5.70;74.00;;;;;;5069436;27;87176;-43
2022/02/23 07:58:34;;;;;;;;;;;5.70;74.00;;;;;;5066077;27;88737;-43
2022/02/23 08:00:59;;;;;;;;;;;5.70;73.90;;;;;;5066496;27;86900;-43
2022/02/23 08:03:26;;;;;;;;;;;5.70;74.00;;;;;;5066435;27;88691;-44
2022/02/23 08:05:53;;;;;;;;;;;5.60;74.10;;;;;;5066118;27;89594;-43
2022/02/23 08:08:19;;;;;;;;;;;5.60;74.20;;;;;;5066457;27;86929;-43
2022/02/23 08:10:45;;;;;;;;;;;5.60;74.20;;;;;;5066830;27;87987;-43
2022/02/23 08:13:11;;;;;;;;;;;5.60;74.10;;;;;;5065890;27;89373;-43
2022/02/23 08:21:05;;;;;;;;;;;5.60;74.40;;;;;;5066564;27;86823;-43
2022/02/23 08:23:31;;;;;;;;;;;5.60;74.40;;;;;;5065937;27;89005;-43
2022/02/23 08:25:57;;;;;;;;;;;5.60;74.40;;;;;;5064815;27;89547;-43
2022/02/23 08:28:22;;;;;;;;;;;5.60;74.40;;;;;;5066338;27;86998;-43
2022/02/23 08:30:48;;;;;;;;;;;5.60;74.60;;;;;;5066018;27;88904;-43
2022/02/23 08:33:14;;;;;;;;;;;5.60;74.40;;;;;;5065457;27;89664;-43
2022/02/23 08:35:40;;;;;;;;;;;5.60;74.40;;;;;;5066427;27;86053;-43
2022/02/23 08:38:11;;;;;;;;;;;5.60;74.50;;;;;;5068382;27;86922;-43
2022/02/23 08:40:44;;;;;;;;;;;5.60;74.60;;;;;;5065765;27;87153;-43
2022/02/23 08:43:10;;;;;;;;;;;5.60;74.70;;;;;;5065070;27;88647;-43
2022/02/23 08:45:36;;;;;;;;;;;5.60;74.70;;;;;;5065479;27;90025;-43
2022/02/23 08:48:02;;;;;;;;;;;5.50;74.60;;;;;;5065979;27;87134;-43
2022/02/23 08:50:28;;;;;;;;;;;5.60;74.60;;;;;;5065625;27;88564;-44
2022/02/23 08:52:54;;;;;;;;;;;5.60;74.60;;;;;;5065186;27;89825;-43
2022/02/23 08:55:19;;;;;;;;;;;5.60;74.60;;;;;;5065484;27;87137;-43
2022/02/23 08:57:45;;;;;;;;;;;5.60;74.80;;;;;;5065639;27;89107;-43
2022/02/23 09:00:11;;;;;;;;;;;5.60;74.80;;;;;;5068706;27;88962;-43
2022/02/23 09:02:36;;;;;;;;;;;5.60;74.60;;;;;;5065339;27;88704;-43
2022/02/23 09:05:02;;;;;;;;;;;5.60;74.70;;;;;;5065032;27;89460;-43
2022/02/23 09:07:27;;;;;;;;;;;5.60;74.50;;;;;;5064957;27;88241;-43
2022/02/23 09:09:53;;;;;;;;;;;5.60;74.60;;;;;;5065310;27;90385;-42
2022/02/23 09:12:19;;;;;;;;;;;5.60;74.60;;;;;;5064935;27;88579;-43
2022/02/23 09:14:45;;;;;;;;;;;5.60;74.80;;;;;;5065304;27;87109;-44
2022/02/23 09:17:10;;;;;;;;;;;5.60;74.80;;;;;;5065371;27;89253;-44
2022/02/23 09:19:36;;;;;;;;;;;5.60;74.80;;;;;;5064879;27;89429;-43
2022/02/23 09:22:02;;;;;;;;;;;5.60;74.80;;;;;;5067906;27;87079;-43
2022/02/23 09:24:27;;;;;;;;;;;5.60;74.70;;;;;;5065417;27;88744;-43
2022/02/23 09:26:53;;;;;;;;;;;5.60;74.80;;;;;;5065164;27;87150;-43
2022/02/23 09:29:18;;;;;;;;;;;5.60;74.80;;;;;;5065297;27;88657;-43
2022/02/23 09:31:44;;;;;;;;;;;5.60;74.90;;;;;;5064065;27;90460;-43
2022/02/23 09:34:10;;;;;;;;;;;5.60;74.80;;;;;;5064953;27;87208;-43
2022/02/23 09:36:38;;;;;;;;;;;5.60;74.90;;;;;;5064749;27;88851;-43
2022/02/23 09:39:04;;;;;;;;;;;5.60;75.00;;;;;;5064257;27;89494;-44
2022/02/23 09:41:29;;;;;;;;;;;5.60;75.00;;;;;;5064853;27;87097;-44
2022/02/23 09:43:55;;;;;;;;;;;5.60;75.10;;;;;;5067476;27;89203;-44
2022/02/23 09:46:23;;;;;;;;;;;5.60;75.10;;;;;;5064861;27;86926;-43
2022/02/23 09:48:49;;;;;;;;;;;5.60;75.00;;;;;;5065215;27;88986;-43
2022/02/23 09:51:15;;;;;;;;;;;5.50;75.20;;;;;;5063966;27;89368;-43
2022/02/23 09:53:46;;;;;;;;;;;5.60;75.20;;;;;;5064900;27;87129;-43
2022/02/23 09:56:14;;;;;;;;;;;5.50;75.20;;;;;;5064213;27;89198;-43
2022/02/23 09:58:40;;;;;;;;;;;5.50;75.10;;;;;;5064140;27;88320;-43
2022/02/23 10:01:07;;;;;;;;;;;5.50;75.20;;;;;;5064565;27;87175;-43
2022/02/23 10:03:36;;;;;;;;;;;5.50;75.10;;;;;;5064391;27;88802;-43
2022/02/23 10:06:02;;;;;;;;;;;5.50;75.10;;;;;;5067368;27;89244;-43
2022/02/23 10:08:37;;;;;;;;;;;5.60;75.20;;;;;;5064650;27;89025;-43
2022/02/23 10:11:03;;;;;;;;;;;5.60;75.10;;;;;;5064393;27;89523;-43
2022/02/23 10:13:29;;;;;;;;;;;5.50;75.20;;;;;;5064964;27;86365;-45
2022/02/23 10:15:58;;;;;;;;;;;5.60;75.10;;;;;;5064288;27;87778;-43
2022/02/23 10:18:26;;;;;;;;;;;5.60;75.00;;;;;;5063743;27;89387;-43
2022/02/23 10:20:51;;;;;;;;;;;5.60;75.20;;;;;;5063720;27;88169;-43
2022/02/23 10:23:25;;;;;;;;;;;5.50;75.10;;;;;;5064233;27;89769;-43
2022/02/23 10:25:55;;;;;;;;;;;5.60;75.30;;;;;;5064045;27;89808;-44
2022/02/23 10:28:22;;;;;;;;;;;5.50;75.50;;;;;;5067090;27;86946;-43
2022/02/23 10:30:55;;;;;;;;;;;5.60;75.50;;;;;;5063653;27;89584;-43
2022/02/23 10:33:22;;;;;;;;;;;5.60;75.30;;;;;;5064305;27;87005;-43
2022/02/23 10:35:48;;;;;;;;;;;5.60;75.30;;;;;;5064037;27;88217;-43
2022/02/23 10:38:25;;;;;;;;;;;5.60;75.10;;;;;;5064033;27;89469;-43
2022/02/23 10:40:51;;;;;;;;;;;5.60;75.40;;;;;;5064200;27;86916;-43
2022/02/23 10:43:24;;;;;;;;;;;5.60;75.50;;;;;;5063770;27;88693;-43
2022/02/23 10:45:51;;;;;;;;;;;5.60;75.60;;;;;;5062866;27;90656;-43
2022/02/23 10:48:30;;;;;;;;;;;5.60;75.40;;;;;;5066136;27;86894;-43
2022/02/23 10:50:55;;;;;;;;;;;5.60;75.50;;;;;;5063535;27;89429;-43
2022/02/23 10:53:24;;;;;;;;;;;5.60;75.30;;;;;;5063849;27;86795;-43
2022/02/23 10:55:50;;;;;;;;;;;5.60;75.40;;;;;;5063730;27;88922;-43
2022/02/23 10:58:15;;;;;;;;;;;5.60;75.50;;;;;;5063096;27;89547;-43
2022/02/23 11:00:43;;;;;;;;;;;5.60;75.50;;;;;;5063581;27;86927;-43
2022/02/23 11:03:09;;;;;;;;;;;5.60;75.40;;;;;;5064083;27;88670;-43
2022/02/23 11:05:34;;;;;;;;;;;5.70;75.50;;;;;;5063392;27;89415;-43
2022/02/23 11:08:03;;;;;;;;;;;5.60;75.50;;;;;;5063573;27;87117;-43
2022/02/23 11:10:29;;;;;;;;;;;5.60;75.40;;;;;;5065690;27;88875;-43
2022/02/23 11:12:55;;;;;;;;;;;5.60;75.20;;;;;;5063261;27;87009;-43
2022/02/23 11:15:22;;;;;;;;;;;5.60;75.40;;;;;;5063842;27;88695;-44
2022/02/23 11:17:48;;;;;;;;;;;5.60;75.70;;;;;;5062948;27;89242;-43
2022/02/23 11:20:19;;;;;;;;;;;5.60;75.50;;;;;;5063325;27;87082;-43
2022/02/23 11:22:49;;;;;;;;;;;5.60;75.70;;;;;;5063574;27;88596;-43
2022/02/23 11:25:15;;;;;;;;;;;5.60;75.40;;;;;;5062876;27;88830;-43
2022/02/23 11:27:42;;;;;;;;;;;5.60;75.60;;;;;;5063859;27;86365;-44
2022/02/23 11:30:13;;;;;;;;;;;5.60;75.60;;;;;;5063594;27;87865;-43
2022/02/23 11:32:41;;;;;;;;;;;5.60;75.80;;;;;;5065854;27;89604;-43
2022/02/23 11:35:07;;;;;;;;;;;5.60;75.90;;;;;;5062695;27;88629;-44
2022/02/23 11:37:33;;;;;;;;;;;5.60;75.60;;;;;;5062855;27;88537;-44
2022/02/23 11:39:59;;;;;;;;;;;5.70;75.40;;;;;;5062723;27;87186;-44
2022/02/23 11:42:25;;;;;;;;;;;5.60;75.50;;;;;;5063166;27;88662;-44
2022/02/23 11:45:04;;;;;;;;;;;5.60;75.40;;;;;;5062926;27;89908;-44
2022/02/23 11:47:29;;;;;;;;;;;5.60;75.40;;;;;;5063368;27;86854;-43
2022/02/23 11:50:02;;;;;;;;;;;5.70;75.60;;;;;;5063147;27;89007;-43
2022/02/23 11:52:29;;;;;;;;;;;5.60;75.40;;;;;;5063035;27;89186;-43
2022/02/23 11:54:57;;;;;;;;;;;5.60;75.80;;;;;;5066367;27;87009;-44
2022/02/23 11:57:41;;;;;;;;;;;5.60;75.70;;;;;;5062630;27;90007;-43
2022/02/23 12:00:07;;;;;;;;;;;5.60;75.70;;;;;;5063754;27;88147;-43
2022/02/23 12:02:33;;;;;;;;;;;5.70;75.70;;;;;;5066386;27;89986;-43
2022/02/23 12:04:59;;;;;;;;;;;5.70;75.60;;;;;;5065834;27;89705;-43
2022/02/23 12:07:25;;;;;;;;;;;5.70;75.60;;;;;;5066383;27;86866;-43
2022/02/23 12:09:56;;;;;;;;;;;5.70;75.50;;;;;;5066447;27;88609;-43
2022/02/23 12:12:29;;;;;;;;;;;5.70;75.40;;;;;;5065837;27;89408;-43
2022/02/23 12:14:55;;;;;;;;;;;5.70;75.60;;;;;;5066169;27;87127;-43
2022/02/23 12:17:39;;;;;;;;;;;5.70;76.10;;;;;;5069267;27;88836;-43
2022/02/23 12:20:04;;;;;;;;;;;5.70;75.70;;;;;;5066335;27;87180;-43
2022/02/23 12:22:35;;;;;;;;;;;5.70;75.60;;;;;;5066165;27;88759;-43
2022/02/23 12:25:01;;;;;;;;;;;5.70;75.70;;;;;;5065104;27;90728;-43
2022/02/23 12:27:28;;;;;;;;;;;5.70;75.60;;;;;;5065951;27;87088;-43
2022/02/23 12:29:54;;;;;;;;;;;5.70;75.80;;;;;;5065993;27;89044;-43
2022/02/23 12:32:24;;;;;;;;;;;5.70;76.10;;;;;;5065547;27;89576;-43
2022/02/23 12:34:52;;;;;;;;;;;5.70;76.00;;;;;;5066051;27;86724;-43
2022/02/23 12:37:19;;;;;;;;;;;5.70;75.70;;;;;;5068716;27;87915;-44
2022/02/23 12:39:46;;;;;;;;;;;5.80;75.80;;;;;;5065427;27;87101;-43
2022/02/23 12:42:15;;;;;;;;;;;5.70;75.70;;;;;;5066264;27;87582;-43
2022/02/23 12:44:42;;;;;;;;;;;5.70;75.80;;;;;;5063876;27;91222;-43
2022/02/23 12:47:10;;;;;;;;;;;5.70;75.60;;;;;;5065873;27;87068;-43
2022/02/23 12:49:36;;;;;;;;;;;5.70;75.90;;;;;;5065098;27;88790;-46
2022/02/23 12:52:02;;;;;;;;;;;5.70;75.70;;;;;;5065443;27;89674;-44
2022/02/23 12:54:29;;;;;;;;;;;5.70;75.70;;;;;;5065848;27;87123;-43
2022/02/23 12:56:55;;;;;;;;;;;5.70;75.90;;;;;;5065700;27;87779;-43
2022/02/23 12:59:22;;;;;;;;;;;5.70;75.80;;;;;;5067974;27;89326;-43
2022/02/23 13:01:51;;;;;;;;;;;5.70;75.80;;;;;;5065528;27;89200;-43
2022/02/23 13:04:20;;;;;;;;;;;5.70;75.80;;;;;;5065277;27;89194;-43
2022/02/23 13:06:53;;;;;;;;;;;5.70;75.80;;;;;;5066003;27;86228;-43
2022/02/23 13:09:19;;;;;;;;;;;5.70;75.60;;;;;;5065342;27;87349;-43
2022/02/23 13:11:46;;;;;;;;;;;5.70;76.10;;;;;;5064733;27;89763;-43
2022/02/23 13:14:14;;;;;;;;;;;5.70;76.10;;;;;;5064941;27;88035;-44
2022/02/23 13:16:40;;;;;;;;;;;5.70;76.20;;;;;;5065450;27;89864;-43
2022/02/23 13:19:08;;;;;;;;;;;5.80;75.80;;;;;;5064933;27;89340;-43
2022/02/23 13:21:38;;;;;;;;;;;5.80;75.60;;;;;;5068213;27;87081;-43
2022/02/23 13:24:04;;;;;;;;;;;5.70;75.90;;;;;;5064735;27;89533;-43
2022/02/23 13:26:30;;;;;;;;;;;5.70;76.10;;;;;;5065026;27;87181;-44
2022/02/23 13:28:58;;;;;;;;;;;5.80;75.90;;;;;;5065310;27;88697;-43
2022/02/23 13:31:58;;;;;;;;;;;5.80;75.90;;;;;;5065312;27;88676;-43
2022/02/23 13:34:42;;;;;;;;;;;5.80;75.70;;;;;;5074350;27;87434;-43
2022/02/23 13:37:10;;;;;;;;;;;5.80;76.10;;;;;;5065127;27;89019;-43
2022/02/23 13:39:41;;;;;;;;;;;5.70;76.10;;;;;;5063139;27;90169;-44
2022/02/23 13:42:09;;;;;;;;;;;5.70;76.00;;;;;;5064734;27;87828;-43
2022/02/23 13:44:36;;;;;;;;;;;5.70;75.90;;;;;;5067445;27;88773;-43
2022/02/23 13:47:15;;;;;;;;;;;5.70;75.70;;;;;;5064695;27;86913;-43
2022/02/23 13:49:56;;;;;;;;;;;5.70;75.70;;;;;;5064568;27;88729;-43
2022/02/23 13:52:23;;;;;;;;;;;5.80;75.50;;;;;;5064238;27;89311;-43
2022/02/23 13:55:03;;;;;;;;;;;5.80;75.70;;;;;;5064722;27;87019;-43
2022/02/23 13:57:34;;;;;;;;;;;5.80;75.80;;;;;;5065091;27;89238;-43
2022/02/23 14:00:01;;;;;;;;;;;5.80;75.80;;;;;;5064125;27;89773;-43
2022/02/23 14:02:26;;;;;;;;;;;5.80;75.70;;;;;;5064416;27;87100;-43
2022/02/23 14:05:02;;;;;;;;;;;5.80;76.00;;;;;;5063957;27;88837;-43
2022/02/23 14:07:28;;;;;;;;;;;5.80;76.10;;;;;;5067188;27;88326;-43
2022/02/23 14:09:53;;;;;;;;;;;5.80;76.00;;;;;;5064580;27;89284;-43
2022/02/23 14:12:19;;;;;;;;;;;5.80;76.00;;;;;;5063997;27;89710;-43
2022/02/23 14:14:45;;;;;;;;;;;5.70;76.00;;;;;;5064565;27;87064;-43
2022/02/23 14:17:21;;;;;;;;;;;5.80;76.00;;;;;;5064369;27;89420;-43
2022/02/23 14:19:51;;;;;;;;;;;5.80;76.00;;;;;;5064077;27;89484;-43
2022/02/23 14:22:20;;;;;;;;;;;5.80;75.90;;;;;;5063863;27;86305;-43
2022/02/23 14:24:54;;;;;;;;;;;5.80;75.90;;;;;;5064276;27;88437;-43
2022/02/23 14:27:20;;;;;;;;;;;5.70;76.10;;;;;;5063955;27;90150;-43
2022/02/23 14:29:48;;;;;;;;;;;5.80;76.00;;;;;;5066465;27;87886;-43
2022/02/23 14:32:18;;;;;;;;;;;5.80;76.20;;;;;;5063722;27;89793;-43
2022/02/23 14:34:48;;;;;;;;;;;5.80;76.10;;;;;;5064223;27;87026;-43